createdAt,value
2023-02-08T00:00:03.757Z,11
2023-02-08T00:01:03.185Z,11
2023-02-08T00:02:03.649Z,11
2023-02-08T00:03:03.676Z,10
2023-02-08T00:04:03.883Z,10
2023-02-08T00:05:03.678Z,11
2023-02-08T00:06:03.730Z,11
2023-02-08T00:07:04.511Z,10
2023-02-08T00:08:03.911Z,10
2023-02-08T00:09:04.134Z,10
2023-02-08T00:10:04.426Z,11
2023-02-08T00:11:04.388Z,11
2023-02-08T00:12:03.281Z,10
2023-02-08T00:13:03.282Z,11
2023-02-08T00:14:03.379Z,10
2023-02-08T00:15:03.101Z,10
2023-02-08T00:16:03.058Z,10
2023-02-08T00:17:03.636Z,10
2023-02-08T00:18:03.613Z,10
2023-02-08T00:19:03.583Z,10
2023-02-08T00:20:03.549Z,11
2023-02-08T00:21:03.192Z,10
2023-02-08T00:22:03.891Z,10
2023-02-08T00:23:03.410Z,11
2023-02-08T00:24:03.462Z,10
2023-02-08T00:25:03.678Z,10
2023-02-08T00:26:03.769Z,10
2023-02-08T00:27:03.100Z,10
2023-02-08T00:28:04.665Z,11
2023-02-08T00:29:03.174Z,10
2023-02-08T00:30:03.311Z,11
2023-02-08T00:31:03.400Z,10
2023-02-08T00:32:04.032Z,10
2023-02-08T00:33:03.705Z,11
2023-02-08T00:34:03.526Z,10
2023-02-08T00:35:03.584Z,10
2023-02-08T00:36:03.479Z,10
2023-02-08T00:37:03.610Z,11
2023-02-08T00:38:03.597Z,10
2023-02-08T00:39:03.927Z,11
2023-02-08T00:40:03.800Z,11
2023-02-08T00:41:03.762Z,10
2023-02-08T00:42:03.003Z,10
2023-02-08T00:43:02.998Z,10
2023-02-08T00:44:03.439Z,10
2023-02-08T00:45:03.175Z,10
2023-02-08T00:46:03.262Z,10
2023-02-08T00:47:03.846Z,10
2023-02-08T00:48:03.247Z,10
2023-02-08T00:49:03.450Z,11
2023-02-08T00:50:03.681Z,10
2023-02-08T00:51:03.596Z,10
2023-02-08T00:52:02.637Z,10
2023-02-08T00:53:02.802Z,10
2023-02-08T00:54:03.017Z,11
2023-02-08T00:55:03.052Z,10
2023-02-08T00:56:02.736Z,10
2023-02-08T00:57:02.890Z,11
2023-02-08T00:58:02.950Z,10
2023-02-08T00:59:02.941Z,10
2023-02-08T01:00:02.891Z,11
2023-02-08T01:01:03.013Z,11
2023-02-08T01:02:04.435Z,11
2023-02-08T01:03:04.592Z,10
2023-02-08T01:04:03.986Z,11
2023-02-08T01:05:04.223Z,11
2023-02-08T01:06:04.284Z,10
2023-02-08T01:07:03.453Z,10
2023-02-08T01:08:03.761Z,11
2023-02-08T01:09:03.820Z,11
2023-02-08T01:10:03.856Z,11
2023-02-08T01:11:03.483Z,11
2023-02-08T01:12:03.416Z,11
2023-02-08T01:13:03.716Z,11
2023-02-08T01:14:03.735Z,11
2023-02-08T01:15:03.721Z,10
2023-02-08T01:16:03.889Z,10
2023-02-08T01:17:04.277Z,11
2023-02-08T01:18:04.287Z,11
2023-02-08T01:19:03.852Z,10
2023-02-08T01:20:03.958Z,11
2023-02-08T01:21:03.829Z,11
2023-02-08T01:22:03.855Z,11
2023-02-08T01:23:03.838Z,10
2023-02-08T01:24:03.820Z,11
2023-02-08T01:25:03.712Z,11
2023-02-08T01:26:03.466Z,10
2023-02-08T01:27:03.717Z,11
2023-02-08T01:28:03.747Z,10
2023-02-08T01:29:03.783Z,10
2023-02-08T01:30:03.784Z,10
2023-02-08T01:31:03.898Z,10
2023-02-08T01:32:03.845Z,11
2023-02-08T01:33:04.098Z,11
2023-02-08T01:34:04.174Z,11
2023-02-08T01:35:04.155Z,11
2023-02-08T01:36:04.248Z,11
2023-02-08T01:37:03.366Z,10
2023-02-08T01:38:03.377Z,11
2023-02-08T01:39:03.079Z,10
2023-02-08T01:40:03.172Z,10
2023-02-08T01:41:03.283Z,11
2023-02-08T01:42:03.510Z,10
2023-02-08T01:43:03.354Z,11
2023-02-08T01:44:03.515Z,10
2023-02-08T01:45:03.514Z,10
2023-02-08T01:46:03.628Z,10
2023-02-08T01:47:03.880Z,10
2023-02-08T01:48:03.968Z,11
2023-02-08T01:49:04.028Z,10
2023-02-08T01:50:03.357Z,10
2023-02-08T01:51:03.714Z,10
2023-02-08T01:52:03.794Z,10
2023-02-08T01:53:03.820Z,10
2023-02-08T01:54:03.876Z,10
2023-02-08T01:55:03.737Z,11
2023-02-08T01:56:03.800Z,10
2023-02-08T01:57:03.416Z,10
2023-02-08T01:58:02.747Z,10
2023-02-08T01:59:02.943Z,10
2023-02-08T02:00:03.010Z,10
2023-02-08T02:01:03.120Z,10
2023-02-08T02:02:04.422Z,10
2023-02-08T02:03:04.171Z,10
2023-02-08T02:04:04.296Z,10
2023-02-08T02:05:04.239Z,10
2023-02-08T02:06:04.468Z,10
2023-02-08T02:07:03.409Z,10
2023-02-08T02:08:03.221Z,10
2023-02-08T02:09:03.270Z,9
2023-02-08T02:10:03.535Z,10
2023-02-08T02:11:03.283Z,9
2023-02-08T02:12:03.488Z,10
2023-02-08T02:13:03.264Z,10
2023-02-08T02:14:03.552Z,9
2023-02-08T02:15:03.335Z,10
2023-02-08T02:16:03.399Z,10
2023-02-08T02:17:03.980Z,10
2023-02-08T02:18:04.390Z,10
2023-02-08T02:19:04.449Z,10
2023-02-08T02:20:03.829Z,10
2023-02-08T02:21:04.331Z,9
2023-02-08T02:22:03.361Z,10
2023-02-08T02:23:03.466Z,9
2023-02-08T02:24:03.648Z,10
2023-02-08T02:25:03.679Z,10
2023-02-08T02:26:03.012Z,10
2023-02-08T02:27:03.900Z,10
2023-02-08T02:28:03.977Z,10
2023-02-08T02:29:03.970Z,10
2023-02-08T02:30:04.010Z,10
2023-02-08T02:31:03.984Z,10
2023-02-08T02:32:04.339Z,10
2023-02-08T02:33:04.232Z,10
2023-02-08T02:34:04.221Z,10
2023-02-08T02:35:03.784Z,10
2023-02-08T02:36:04.134Z,10
2023-02-08T02:37:04.196Z,10
2023-02-08T02:38:03.942Z,10
2023-02-08T02:39:04.334Z,10
2023-02-08T02:40:04.370Z,10
2023-02-08T02:41:04.338Z,10
2023-02-08T02:42:03.245Z,10
2023-02-08T02:43:03.250Z,10
2023-02-08T02:44:03.329Z,10
2023-02-08T02:45:03.342Z,10
2023-02-08T02:46:03.687Z,10
2023-02-08T02:47:03.652Z,10
2023-02-08T02:48:03.419Z,10
2023-02-08T02:49:03.539Z,10
2023-02-08T02:50:03.801Z,10
2023-02-08T02:51:03.333Z,10
2023-02-08T02:52:04.015Z,10
2023-02-08T02:53:04.064Z,10
2023-02-08T02:54:04.105Z,10
2023-02-08T02:55:04.286Z,10
2023-02-08T02:56:03.703Z,10
2023-02-08T02:57:03.650Z,10
2023-02-08T02:58:03.409Z,9
2023-02-08T02:59:03.734Z,10
2023-02-08T03:00:03.488Z,10
2023-02-08T03:01:03.693Z,10
2023-02-08T03:02:04.976Z,10
2023-02-08T03:03:04.290Z,10
2023-02-08T03:04:04.387Z,10
2023-02-08T03:05:04.430Z,10
2023-02-08T03:06:04.447Z,10
2023-02-08T03:07:04.134Z,9
2023-02-08T03:08:04.267Z,10
2023-02-08T03:09:04.144Z,9
2023-02-08T03:10:03.756Z,10
2023-02-08T03:11:03.726Z,10
2023-02-08T03:12:04.587Z,10
2023-02-08T03:13:04.238Z,9
2023-02-08T03:14:04.498Z,9
2023-02-08T03:15:04.553Z,10
2023-02-08T03:16:04.696Z,9
2023-02-08T03:17:03.823Z,9
2023-02-08T03:18:04.038Z,9
2023-02-08T03:19:04.077Z,9
2023-02-08T03:20:04.169Z,10
2023-02-08T03:21:04.121Z,10
2023-02-08T03:22:04.859Z,9
2023-02-08T03:23:04.639Z,10
2023-02-08T03:24:04.566Z,10
2023-02-08T03:25:04.679Z,9
2023-02-08T03:26:04.851Z,10
2023-02-08T03:27:04.803Z,10
2023-02-08T03:28:05.130Z,10
2023-02-08T03:29:04.376Z,9
2023-02-08T03:30:04.718Z,9
2023-02-08T03:31:04.860Z,9
2023-02-08T03:32:04.590Z,10
2023-02-08T03:33:04.581Z,10
2023-02-08T03:34:04.597Z,10
2023-02-08T03:35:04.033Z,9
2023-02-08T03:36:04.288Z,9
2023-02-08T03:37:04.115Z,9
2023-02-08T03:38:04.113Z,10
2023-02-08T03:39:04.089Z,9
2023-02-08T03:40:04.107Z,9
2023-02-08T03:41:03.680Z,10
2023-02-08T03:42:04.357Z,9
2023-02-08T03:43:04.158Z,9
2023-02-08T03:44:04.192Z,10
2023-02-08T03:45:04.361Z,10
2023-02-08T03:46:04.457Z,10
2023-02-08T03:47:04.143Z,10
2023-02-08T03:48:04.138Z,9
2023-02-08T03:49:04.102Z,9
2023-02-08T03:50:04.078Z,10
2023-02-08T03:51:03.885Z,10
2023-02-08T03:52:03.928Z,9
2023-02-08T03:53:04.349Z,10
2023-02-08T03:54:04.441Z,9
2023-02-08T03:55:04.047Z,10
2023-02-08T03:56:04.160Z,9
2023-02-08T03:57:04.180Z,10
2023-02-08T03:58:04.795Z,10
2023-02-08T03:59:04.193Z,9
2023-02-08T04:00:04.365Z,10
2023-02-08T04:01:04.830Z,10
2023-02-08T04:02:04.190Z,10
2023-02-08T04:03:04.472Z,10
2023-02-08T04:04:04.811Z,10
2023-02-08T04:05:04.397Z,10
2023-02-08T04:06:04.443Z,9
2023-02-08T04:07:04.659Z,9
2023-02-08T04:08:04.555Z,9
2023-02-08T04:09:04.553Z,9
2023-02-08T04:10:04.505Z,10
2023-02-08T04:11:04.548Z,10
2023-02-08T04:12:03.636Z,10
2023-02-08T04:13:04.166Z,10
2023-02-08T04:14:04.154Z,10
2023-02-08T04:15:03.545Z,10
2023-02-08T04:16:03.905Z,9
2023-02-08T04:17:03.936Z,9
2023-02-08T04:18:04.045Z,10
2023-02-08T04:19:03.844Z,9
2023-02-08T04:20:04.186Z,10
2023-02-08T04:21:04.429Z,10
2023-02-08T04:22:04.333Z,10
2023-02-08T04:23:04.621Z,10
2023-02-08T04:24:04.649Z,9
2023-02-08T04:25:04.599Z,9
2023-02-08T04:26:04.702Z,10
2023-02-08T04:27:05.958Z,10
2023-02-08T04:28:03.867Z,9
2023-02-08T04:29:03.401Z,9
2023-02-08T04:30:03.787Z,9
2023-02-08T04:31:03.678Z,9
2023-02-08T04:32:03.737Z,9
2023-02-08T04:33:04.161Z,9
2023-02-08T04:34:04.054Z,10
2023-02-08T04:35:04.188Z,9
2023-02-08T04:36:03.621Z,9
2023-02-08T04:37:03.980Z,10
2023-02-08T04:38:04.106Z,9
2023-02-08T04:39:04.063Z,9
2023-02-08T04:40:04.223Z,9
2023-02-08T04:41:04.244Z,10
2023-02-08T04:42:04.317Z,10
2023-02-08T04:43:04.253Z,10
2023-02-08T04:44:04.424Z,10
2023-02-08T04:45:04.644Z,9
2023-02-08T04:46:04.261Z,10
2023-02-08T04:47:03.398Z,10
2023-02-08T04:48:03.446Z,10
2023-02-08T04:49:03.315Z,10
2023-02-08T04:50:03.765Z,10
2023-02-08T04:51:03.287Z,10
2023-02-08T04:52:03.331Z,10
2023-02-08T04:53:03.656Z,10
2023-02-08T04:54:03.779Z,10
2023-02-08T04:55:03.408Z,10
2023-02-08T04:56:03.523Z,10
2023-02-08T04:57:03.359Z,10
2023-02-08T04:58:03.656Z,10
2023-02-08T04:59:03.674Z,10
2023-02-08T05:00:03.533Z,11
2023-02-08T05:01:03.792Z,10
2023-02-08T05:02:04.636Z,10
2023-02-08T05:03:05.052Z,10
2023-02-08T05:04:04.728Z,10
2023-02-08T05:05:04.891Z,10
2023-02-08T05:06:04.911Z,10
2023-02-08T05:07:04.018Z,10
2023-02-08T05:08:04.118Z,10
2023-02-08T05:09:04.248Z,10
2023-02-08T05:10:04.391Z,10
2023-02-08T05:11:04.057Z,10
2023-02-08T05:12:04.150Z,11
2023-02-08T05:13:04.249Z,10
2023-02-08T05:14:04.402Z,10
2023-02-08T05:15:04.519Z,10
2023-02-08T05:16:04.102Z,10
2023-02-08T05:17:04.153Z,11
2023-02-08T05:18:04.234Z,11
2023-02-08T05:19:04.386Z,10
2023-02-08T05:20:04.182Z,11
2023-02-08T05:21:04.009Z,11
2023-02-08T05:22:04.492Z,11
2023-02-08T05:23:03.942Z,10
2023-02-08T05:24:04.287Z,10
2023-02-08T05:25:04.294Z,10
2023-02-08T05:26:03.887Z,10
2023-02-08T05:27:04.337Z,10
2023-02-08T05:28:04.391Z,11
2023-02-08T05:29:04.169Z,10
2023-02-08T05:30:04.231Z,10
2023-02-08T05:31:04.481Z,10
2023-02-08T05:32:04.777Z,10
2023-02-08T05:33:04.846Z,10
2023-02-08T05:34:04.917Z,10
2023-02-08T05:35:04.546Z,10
2023-02-08T05:36:05.318Z,11
2023-02-08T05:37:03.920Z,11
2023-02-08T05:38:03.729Z,10
2023-02-08T05:39:03.955Z,11
2023-02-08T05:40:04.018Z,10
2023-02-08T05:41:03.866Z,10
2023-02-08T05:42:04.035Z,10
2023-02-08T05:43:04.117Z,10
2023-02-08T05:44:04.100Z,11
2023-02-08T05:45:04.187Z,10
2023-02-08T05:46:03.873Z,10
2023-02-08T05:47:04.198Z,11
2023-02-08T05:48:03.789Z,10
2023-02-08T05:49:04.216Z,11
2023-02-08T05:50:03.826Z,11
2023-02-08T05:51:03.913Z,11
2023-02-08T05:52:03.614Z,11
2023-02-08T05:53:03.846Z,11
2023-02-08T05:54:03.685Z,11
2023-02-08T05:55:03.503Z,10
2023-02-08T05:56:03.462Z,10
2023-02-08T05:57:04.431Z,11
2023-02-08T05:58:04.477Z,11
2023-02-08T05:59:04.579Z,11
2023-02-08T06:00:04.052Z,11
2023-02-08T06:01:04.434Z,10
2023-02-08T06:02:04.528Z,10
2023-02-08T06:03:04.631Z,10
2023-02-08T06:04:04.744Z,10
2023-02-08T06:05:04.225Z,10
2023-02-08T06:06:04.651Z,11
2023-02-08T06:07:04.106Z,11
2023-02-08T06:08:04.290Z,10
2023-02-08T06:09:04.164Z,11
2023-02-08T06:10:04.318Z,10
2023-02-08T06:11:03.817Z,11
2023-02-08T06:12:03.759Z,10
2023-02-08T06:13:04.023Z,11
2023-02-08T06:14:03.456Z,11
2023-02-08T06:15:03.840Z,10
2023-02-08T06:16:03.636Z,11
2023-02-08T06:17:04.577Z,10
2023-02-08T06:18:04.073Z,11
2023-02-08T06:19:04.346Z,10
2023-02-08T06:20:04.582Z,11
2023-02-08T06:21:04.073Z,11
2023-02-08T06:22:03.719Z,11
2023-02-08T06:23:03.852Z,10
2023-02-08T06:24:03.432Z,11
2023-02-08T06:25:03.485Z,11
2023-02-08T06:26:03.800Z,11
2023-02-08T06:27:04.028Z,11
2023-02-08T06:28:04.152Z,11
2023-02-08T06:29:04.320Z,11
2023-02-08T06:30:04.474Z,10
2023-02-08T06:31:03.976Z,11
2023-02-08T06:32:04.623Z,11
2023-02-08T06:33:04.417Z,11
2023-02-08T06:34:04.511Z,11
2023-02-08T06:35:03.985Z,11
2023-02-08T06:36:04.129Z,11
2023-02-08T06:37:04.010Z,11
2023-02-08T06:38:03.787Z,11
2023-02-08T06:39:03.725Z,11
2023-02-08T06:40:03.691Z,11
2023-02-08T06:41:03.384Z,11
2023-02-08T06:42:04.388Z,10
2023-02-08T06:43:04.044Z,11
2023-02-08T06:44:04.251Z,11
2023-02-08T06:45:04.053Z,11
2023-02-08T06:46:03.806Z,11
2023-02-08T06:47:03.590Z,11
2023-02-08T06:48:03.725Z,11
2023-02-08T06:49:03.559Z,10
2023-02-08T06:50:03.752Z,11
2023-02-08T06:51:03.688Z,11
2023-02-08T06:52:02.992Z,10
2023-02-08T06:53:02.921Z,11
2023-02-08T06:54:03.471Z,11
2023-02-08T06:55:02.912Z,11
2023-02-08T06:56:03.340Z,11
2023-02-08T06:57:04.105Z,11
2023-02-08T06:58:03.846Z,11
2023-02-08T06:59:04.053Z,11
2023-02-08T07:00:03.529Z,11
2023-02-08T07:01:03.990Z,11
2023-02-08T07:02:04.593Z,11
2023-02-08T07:03:04.852Z,11
2023-02-08T07:04:04.418Z,12
2023-02-08T07:05:04.913Z,12
2023-02-08T07:06:05.734Z,13
2023-02-08T07:07:03.795Z,12
2023-02-08T07:08:04.043Z,12
2023-02-08T07:09:04.334Z,12
2023-02-08T07:10:03.885Z,11
2023-02-08T07:11:04.010Z,11
2023-02-08T07:12:04.350Z,12
2023-02-08T07:13:04.721Z,12
2023-02-08T07:14:04.275Z,12
2023-02-08T07:15:04.444Z,12
2023-02-08T07:16:04.554Z,12
2023-02-08T07:17:03.994Z,12
2023-02-08T07:18:04.207Z,11
2023-02-08T07:19:04.432Z,12
2023-02-08T07:20:03.898Z,11
2023-02-08T07:21:04.141Z,12
2023-02-08T07:22:07.208Z,12
2023-02-08T07:23:04.850Z,12
2023-02-08T07:24:04.680Z,11
2023-02-08T07:25:04.279Z,11
2023-02-08T07:26:04.825Z,11
2023-02-08T07:27:04.468Z,11
2023-02-08T07:28:05.010Z,11
2023-02-08T07:29:04.444Z,11
2023-02-08T07:30:04.755Z,11
2023-02-08T07:31:04.570Z,11
2023-02-08T07:32:03.957Z,11
2023-02-08T07:33:04.370Z,11
2023-02-08T07:34:03.950Z,11
2023-02-08T07:35:04.255Z,11
2023-02-08T07:36:03.662Z,11
2023-02-08T07:37:04.348Z,12
2023-02-08T07:38:04.537Z,11
2023-02-08T07:39:04.825Z,12
2023-02-08T07:40:04.385Z,12
2023-02-08T07:41:04.538Z,12
2023-02-08T07:42:03.743Z,11
2023-02-08T07:43:03.973Z,12
2023-02-08T07:44:04.145Z,12
2023-02-08T07:45:03.540Z,12
2023-02-08T07:46:04.081Z,11
2023-02-08T07:47:04.391Z,11
2023-02-08T07:48:04.669Z,11
2023-02-08T07:49:04.158Z,11
2023-02-08T07:50:04.647Z,12
2023-02-08T07:51:04.143Z,11
2023-02-08T07:52:03.544Z,11
2023-02-08T07:53:03.736Z,11
2023-02-08T07:54:03.299Z,11
2023-02-08T07:55:03.438Z,12
2023-02-08T07:56:03.583Z,12
2023-02-08T07:57:04.173Z,12
2023-02-08T07:58:03.835Z,12
2023-02-08T07:59:04.414Z,12
2023-02-08T08:00:03.957Z,11
2023-02-08T08:01:19.529Z,12
2023-02-08T08:02:04.452Z,12
2023-02-08T08:03:04.034Z,11
2023-02-08T08:04:04.498Z,11
2023-02-08T08:05:04.071Z,11
2023-02-08T08:06:04.272Z,11
2023-02-08T08:07:03.696Z,12
2023-02-08T08:08:03.367Z,11
2023-02-08T08:09:03.843Z,12
2023-02-08T08:10:03.566Z,11
2023-02-08T08:11:04.016Z,12
2023-02-08T08:12:04.216Z,12
2023-02-08T08:13:04.170Z,11
2023-02-08T08:14:04.324Z,11
2023-02-08T08:15:04.496Z,11
2023-02-08T08:16:04.060Z,12
2023-02-08T08:17:03.633Z,11
2023-02-08T08:18:03.841Z,12
2023-02-08T08:19:03.355Z,11
2023-02-08T08:20:03.316Z,11
2023-02-08T08:21:03.751Z,12
2023-02-08T08:22:03.958Z,11
2023-02-08T08:23:03.950Z,12
2023-02-08T08:24:03.618Z,12
2023-02-08T08:25:04.109Z,11
2023-02-08T08:26:04.096Z,11
2023-02-08T08:27:04.817Z,11
2023-02-08T08:28:04.157Z,12
2023-02-08T08:29:04.177Z,11
2023-02-08T08:30:03.754Z,11
2023-02-08T08:31:04.037Z,11
2023-02-08T08:32:03.376Z,12
2023-02-08T08:33:03.115Z,12
2023-02-08T08:34:03.566Z,11
2023-02-08T08:35:03.124Z,12
2023-02-08T08:36:03.468Z,11
2023-02-08T08:37:03.875Z,12
2023-02-08T08:38:03.440Z,12
2023-02-08T08:39:03.405Z,11
2023-02-08T08:40:03.821Z,12
2023-02-08T08:41:03.416Z,12
2023-02-08T08:42:03.886Z,11
2023-02-08T08:43:04.056Z,12
2023-02-08T08:44:03.602Z,12
2023-02-08T08:45:03.887Z,12
2023-02-08T08:46:03.847Z,12
2023-02-08T08:47:03.176Z,12
2023-02-08T08:48:03.446Z,11
2023-02-08T08:49:02.939Z,12
2023-02-08T08:50:03.391Z,11
2023-02-08T08:51:03.014Z,11
2023-02-08T08:52:03.642Z,11
2023-02-08T08:53:03.332Z,11
2023-02-08T08:54:03.818Z,11
2023-02-08T08:55:03.366Z,12
2023-02-08T08:56:03.637Z,11
2023-02-08T08:58:03.316Z,12
2023-02-08T08:59:03.881Z,12
2023-02-08T09:00:03.661Z,12
2023-02-08T09:01:03.392Z,11
2023-02-08T09:02:04.363Z,11
2023-02-08T09:03:03.990Z,11
2023-02-08T09:04:04.367Z,11
2023-02-08T09:05:03.948Z,11
2023-02-08T09:06:04.052Z,11
2023-02-08T09:07:02.953Z,11
2023-02-08T09:08:03.117Z,11
2023-02-08T09:09:03.390Z,11
2023-02-08T09:10:03.028Z,12
2023-02-08T09:11:03.044Z,11
2023-02-08T09:12:04.016Z,11
2023-02-08T09:13:03.674Z,11
2023-02-08T09:14:04.644Z,11
2023-02-08T09:15:03.758Z,11
2023-02-08T09:16:04.076Z,11
2023-02-08T09:17:03.431Z,10
2023-02-08T09:18:03.188Z,10
2023-02-08T09:19:03.439Z,10
2023-02-08T09:20:04.835Z,10
2023-02-08T09:21:03.247Z,10
2023-02-08T09:22:03.954Z,10
2023-02-08T09:23:03.501Z,10
2023-02-08T09:24:03.909Z,9
2023-02-08T09:25:03.401Z,9
2023-02-08T09:26:03.636Z,9
2023-02-08T09:27:03.998Z,9
2023-02-08T09:28:03.508Z,9
2023-02-08T09:29:03.679Z,9
2023-02-08T09:30:03.900Z,9
2023-02-08T09:31:04.087Z,9
2023-02-08T09:32:03.504Z,9
2023-02-08T09:33:03.217Z,9
2023-02-08T09:34:03.406Z,9
2023-02-08T09:35:03.347Z,9
2023-02-08T09:36:02.878Z,9
2023-02-08T09:37:04.019Z,9
2023-02-08T09:38:03.740Z,9
2023-02-08T09:39:03.417Z,9
2023-02-08T09:40:03.617Z,9
2023-02-08T09:41:03.804Z,9
2023-02-08T09:42:04.125Z,9
2023-02-08T09:43:03.681Z,9
2023-02-08T09:44:03.931Z,9
2023-02-08T09:45:04.015Z,8
2023-02-08T09:46:03.983Z,8
2023-02-08T09:47:02.633Z,9
2023-02-08T09:48:02.915Z,8
2023-02-08T09:49:03.143Z,8
2023-02-08T09:50:02.705Z,8
2023-02-08T09:51:03.070Z,8
2023-02-08T09:52:02.826Z,9
2023-02-08T09:53:03.199Z,8
2023-02-08T09:54:02.747Z,8
2023-02-08T09:55:03.124Z,8
2023-02-08T09:56:03.172Z,8
2023-02-08T09:57:03.263Z,8
2023-02-08T09:58:03.821Z,8
2023-02-08T09:59:03.294Z,8
2023-02-08T10:00:03.213Z,8
2023-02-08T10:01:05.868Z,8
2023-02-08T10:02:04.785Z,8
2023-02-08T10:03:04.902Z,8
2023-02-08T10:04:04.969Z,8
2023-02-08T10:05:04.474Z,8
2023-02-08T10:06:04.516Z,8
2023-02-08T10:07:03.726Z,8
2023-02-08T10:08:04.029Z,8
2023-02-08T10:09:03.746Z,8
2023-02-08T10:10:03.986Z,8
2023-02-08T10:11:04.069Z,8
2023-02-08T10:12:04.278Z,8
2023-02-08T10:13:04.293Z,8
2023-02-08T10:14:04.614Z,8
2023-02-08T10:15:04.440Z,8
2023-02-08T10:16:04.743Z,8
2023-02-08T10:17:03.847Z,7
2023-02-08T10:18:04.341Z,7
2023-02-08T10:19:03.886Z,7
2023-02-08T10:20:04.233Z,7
2023-02-08T10:21:04.250Z,7
2023-02-08T10:22:03.893Z,7
2023-02-08T10:23:03.357Z,7
2023-02-08T10:24:03.549Z,7
2023-02-08T10:25:03.323Z,7
2023-02-08T10:26:03.637Z,7
2023-02-08T10:27:03.937Z,7
2023-02-08T10:28:03.774Z,7
2023-02-08T10:29:03.376Z,7
2023-02-08T10:30:03.369Z,7
2023-02-08T10:31:03.480Z,7
2023-02-08T10:32:03.547Z,7
2023-02-08T10:33:03.737Z,7
2023-02-08T10:34:05.461Z,7
2023-02-08T10:35:04.262Z,7
2023-02-08T10:36:04.114Z,7
2023-02-08T10:37:04.148Z,7
2023-02-08T10:38:04.710Z,7
2023-02-08T10:39:04.671Z,7
2023-02-08T10:40:04.148Z,7
2023-02-08T10:41:04.244Z,7
2023-02-08T10:42:03.397Z,7
2023-02-08T10:43:03.544Z,7
2023-02-08T10:44:03.978Z,7
2023-02-08T10:45:08.277Z,7
2023-02-08T10:46:03.701Z,7
2023-02-08T10:47:03.793Z,7
2023-02-08T10:48:03.753Z,7
2023-02-08T10:49:04.057Z,7
2023-02-08T10:50:04.043Z,7
2023-02-08T10:51:04.009Z,7
2023-02-08T10:52:04.342Z,7
2023-02-08T10:53:04.124Z,7
2023-02-08T10:54:04.592Z,7
2023-02-08T10:55:03.983Z,7
2023-02-08T10:56:04.437Z,7
2023-02-08T10:57:04.120Z,7
2023-02-08T10:58:04.282Z,7
2023-02-08T10:59:04.899Z,7
2023-02-08T11:00:04.612Z,7
2023-02-08T11:01:05.154Z,7
2023-02-08T11:02:04.797Z,7
2023-02-08T11:03:04.927Z,7
2023-02-08T11:04:05.423Z,7
2023-02-08T11:05:04.774Z,7
2023-02-08T11:06:05.245Z,7
2023-02-08T11:07:04.486Z,6
2023-02-08T11:08:04.673Z,7
2023-02-08T11:09:04.261Z,6
2023-02-08T11:10:04.347Z,6
2023-02-08T11:11:04.596Z,7
2023-02-08T11:12:04.567Z,6
2023-02-08T11:13:04.795Z,6
2023-02-08T11:14:05.274Z,6
2023-02-08T11:15:04.600Z,6
2023-02-08T11:16:04.697Z,6
2023-02-08T11:17:04.300Z,5
2023-02-08T11:18:04.350Z,6
2023-02-08T11:19:04.664Z,5
2023-02-08T11:20:04.564Z,6
2023-02-08T11:21:04.593Z,5
2023-02-08T11:22:04.443Z,5
2023-02-08T11:23:04.445Z,5
2023-02-08T11:24:05.160Z,5
2023-02-08T11:25:04.742Z,5
2023-02-08T11:26:04.810Z,5
2023-02-08T11:27:04.322Z,5
2023-02-08T11:28:04.022Z,5
2023-02-08T11:29:04.048Z,6
2023-02-08T11:30:04.460Z,5
2023-02-08T11:31:03.960Z,5
2023-02-08T11:32:04.262Z,5
2023-02-08T11:33:04.280Z,5
2023-02-08T11:34:05.180Z,5
2023-02-08T11:35:03.980Z,5
2023-02-08T11:36:04.032Z,5
2023-02-08T11:37:04.222Z,5
2023-02-08T11:38:04.365Z,5
2023-02-08T11:39:03.941Z,5
2023-02-08T11:40:04.450Z,5
2023-02-08T11:41:04.334Z,4
2023-02-08T11:42:04.571Z,5
2023-02-08T11:43:04.565Z,4
2023-02-08T11:44:04.282Z,5
2023-02-08T11:45:04.346Z,5
2023-02-08T11:46:04.505Z,4
2023-02-08T11:47:04.689Z,4
2023-02-08T11:48:04.941Z,5
2023-02-08T11:49:04.444Z,4
2023-02-08T11:50:04.637Z,4
2023-02-08T11:51:04.793Z,5
2023-02-08T11:52:04.828Z,4
2023-02-08T11:53:04.888Z,5
2023-02-08T11:54:04.580Z,4
2023-02-08T11:55:04.803Z,4
2023-02-08T11:56:04.830Z,4
2023-02-08T11:57:04.018Z,5
2023-02-08T11:58:04.174Z,4
2023-02-08T11:59:03.913Z,4
2023-02-08T12:00:03.855Z,4
2023-02-08T12:01:03.708Z,4
2023-02-08T12:02:04.262Z,4
2023-02-08T12:03:03.773Z,4
2023-02-08T12:04:03.857Z,4
2023-02-08T12:05:03.949Z,4
2023-02-08T12:06:04.068Z,4
2023-02-08T12:07:03.943Z,4
2023-02-08T12:08:04.185Z,4
2023-02-08T12:09:04.378Z,4
2023-02-08T12:10:03.887Z,4
2023-02-08T12:11:04.290Z,4
2023-02-08T12:12:03.759Z,4
2023-02-08T12:13:03.711Z,4
2023-02-08T12:14:03.902Z,4
2023-02-08T12:15:03.305Z,4
2023-02-08T12:16:04.265Z,4
2023-02-08T12:17:03.773Z,3
2023-02-08T12:18:03.529Z,3
2023-02-08T12:19:03.469Z,4
2023-02-08T12:20:03.647Z,3
2023-02-08T12:21:03.545Z,3
2023-02-08T12:22:03.820Z,4
2023-02-08T12:23:03.711Z,3
2023-02-08T12:24:03.994Z,3
2023-02-08T12:25:03.565Z,3
2023-02-08T12:26:03.930Z,3
2023-02-08T12:27:04.423Z,3
2023-02-08T12:28:04.528Z,3
2023-02-08T12:29:04.624Z,3
2023-02-08T12:30:04.069Z,3
2023-02-08T12:31:04.650Z,3
2023-02-08T12:32:03.554Z,3
2023-02-08T12:33:03.614Z,3
2023-02-08T12:34:03.503Z,3
2023-02-08T12:35:03.422Z,3
2023-02-08T12:36:05.259Z,3
2023-02-08T12:37:03.578Z,3
2023-02-08T12:38:03.655Z,3
2023-02-08T12:39:17.849Z,3
2023-02-08T12:40:03.548Z,3
2023-02-08T12:41:03.711Z,3
2023-02-08T12:42:03.920Z,3
2023-02-08T12:43:03.786Z,3
2023-02-08T12:44:03.848Z,3
2023-02-08T12:45:03.912Z,3
2023-02-08T12:46:03.795Z,3
2023-02-08T12:47:03.623Z,3
2023-02-08T12:48:04.616Z,3
2023-02-08T12:49:03.408Z,3
2023-02-08T12:50:03.198Z,2
2023-02-08T12:51:03.398Z,3
2023-02-08T12:52:03.624Z,2
2023-02-08T12:53:03.696Z,3
2023-02-08T12:54:03.512Z,3
2023-02-08T12:55:03.703Z,3
2023-02-08T12:56:03.560Z,3
2023-02-08T12:57:03.957Z,2
2023-02-08T12:58:03.514Z,3
2023-02-08T12:59:13.191Z,3
2023-02-08T13:00:03.736Z,2
2023-02-08T13:01:03.901Z,3
2023-02-08T13:02:04.370Z,3
2023-02-08T13:03:03.851Z,3
2023-02-08T13:04:04.259Z,3
2023-02-08T13:05:04.270Z,2
2023-02-08T13:06:04.751Z,3
2023-02-08T13:07:04.376Z,2
2023-02-08T13:08:04.444Z,2
2023-02-08T13:09:03.956Z,3
2023-02-08T13:10:04.054Z,3
2023-02-08T13:11:18.861Z,3
2023-02-08T13:12:04.077Z,2
2023-02-08T13:13:03.578Z,2
2023-02-08T13:14:03.734Z,3
2023-02-08T13:15:03.470Z,2
2023-02-08T13:16:03.822Z,3
2023-02-08T13:17:03.068Z,3
2023-02-08T13:18:03.511Z,2
2023-02-08T13:19:03.500Z,3
2023-02-08T13:20:03.537Z,3
2023-02-08T13:21:03.704Z,2
2023-02-08T13:22:03.198Z,2
2023-02-08T13:23:03.669Z,2
2023-02-08T13:24:03.840Z,2
2023-02-08T13:25:08.486Z,3
2023-02-08T13:26:03.613Z,3
2023-02-08T13:27:03.551Z,2
2023-02-08T13:28:04.126Z,3
2023-02-08T13:29:03.760Z,3
2023-02-08T13:30:03.769Z,3
2023-02-08T13:31:04.371Z,2
2023-02-08T13:32:04.220Z,2
2023-02-08T13:33:03.635Z,3
2023-02-08T13:34:03.851Z,2
2023-02-08T13:35:03.865Z,2
2023-02-08T13:36:03.513Z,3
2023-02-08T13:37:08.867Z,2
2023-02-08T13:38:03.982Z,2
2023-02-08T13:39:04.044Z,2
2023-02-08T13:40:04.184Z,2
2023-02-08T13:41:04.293Z,3
2023-02-08T13:42:03.883Z,2
2023-02-08T13:43:03.053Z,2
2023-02-08T13:44:03.302Z,2
2023-02-08T13:45:03.268Z,3
2023-02-08T13:46:03.394Z,3
2023-02-08T13:47:03.668Z,3
2023-02-08T13:48:03.817Z,2
2023-02-08T13:49:04.051Z,2
2023-02-08T13:50:03.586Z,2
2023-02-08T13:51:03.983Z,2
2023-02-08T13:52:04.018Z,2
2023-02-08T13:53:04.288Z,3
2023-02-08T13:54:04.547Z,2
2023-02-08T13:55:04.034Z,3
2023-02-08T13:56:04.198Z,2
2023-02-08T13:57:04.018Z,2
2023-02-08T13:58:02.998Z,2
2023-02-08T13:59:03.371Z,3
2023-02-08T14:00:03.549Z,2
2023-02-08T14:01:03.125Z,2
2023-02-08T14:02:03.038Z,2
2023-02-08T14:03:04.182Z,2
2023-02-08T14:04:04.536Z,3
2023-02-08T14:05:04.938Z,2
2023-02-08T14:06:04.419Z,2
2023-02-08T14:07:04.441Z,2
2023-02-08T14:08:04.844Z,2
2023-02-08T14:09:04.371Z,2
2023-02-08T14:10:04.627Z,2
2023-02-08T14:11:04.416Z,2
2023-02-08T14:12:04.379Z,2
2023-02-08T14:13:04.922Z,2
2023-02-08T14:14:05.228Z,2
2023-02-08T14:15:05.125Z,2
2023-02-08T14:16:04.635Z,2
2023-02-08T14:17:04.881Z,2
2023-02-08T14:18:03.975Z,2
2023-02-08T14:19:04.197Z,2
2023-02-08T14:20:03.980Z,2
2023-02-08T14:21:04.175Z,2
2023-02-08T14:22:04.375Z,2
2023-02-08T14:23:04.438Z,3
2023-02-08T14:24:04.429Z,2
2023-02-08T14:25:04.694Z,2
2023-02-08T14:26:04.730Z,2
2023-02-08T14:27:04.809Z,2
2023-02-08T14:28:04.949Z,2
2023-02-08T14:29:04.955Z,2